Time;durP1;ratioP1;P1;durP2;ratioP2;P2;SDS_P1;SDS_P2;PMS_P1;PMS_P2;Temp;Humidity;BMP_temperature;BMP_pressure;BME280_temperature;BME280_humidity;BME280_pressure;Samples;Min_cycle;Max_cycle;Signal;HPM_P1;HPM_P2
2022/09/26 00:02:25;;;;;;;5.30;2.10;;;11.90;79.20;;;;;;5010229;28;20167;-74
2022/09/26 00:04:53;;;;;;;5.50;1.93;;;11.90;79.20;;;;;;5011048;28;20054;-74
2022/09/26 00:07:20;;;;;;;5.25;2.13;;;11.90;79.20;;;;;;5009283;28;20741;-74
2022/09/26 00:09:47;;;;;;;5.45;2.17;;;11.90;79.20;;;;;;5007810;28;20105;-74
2022/09/26 00:12:15;;;;;;;6.55;2.03;;;11.90;79.40;;;;;;5010051;28;20526;-73
2022/09/26 00:14:42;;;;;;;4.30;2.13;;;11.90;79.30;;;;;;5005937;28;20051;-74
2022/09/26 00:17:08;;;;;;;5.70;2.13;;;11.90;79.30;;;;;;5006947;28;20525;-74
2022/09/26 00:19:35;;;;;;;4.63;1.80;;;11.90;79.30;;;;;;5008817;28;20916;-74
2022/09/26 00:22:04;;;;;;;6.85;2.00;;;11.90;79.40;;;;;;5007224;28;20089;-74
2022/09/26 00:24:30;;;;;;;5.53;1.92;;;11.90;79.50;;;;;;5007499;28;20564;-74
2022/09/26 00:26:57;;;;;;;5.25;2.00;;;11.90;79.50;;;;;;5008025;28;20064;-74
2022/09/26 00:29:24;;;;;;;4.27;1.90;;;11.90;79.40;;;;;;5009284;28;20129;-74
2022/09/26 00:31:52;;;;;;;4.68;2.10;;;11.90;79.40;;;;;;4990677;28;20262;-74
2022/09/26 00:34:20;;;;;;;6.10;2.00;;;11.90;79.40;;;;;;5008280;28;20568;-74
2022/09/26 00:36:48;;;;;;;7.05;2.00;;;11.90;79.40;;;;;;5008558;28;20155;-74
2022/09/26 00:39:16;;;;;;;6.13;1.85;;;11.90;79.40;;;;;;4991816;28;20054;-74
2022/09/26 00:41:44;;;;;;;4.90;1.83;;;11.90;79.40;;;;;;5009859;28;20158;-74
2022/09/26 00:44:34;;;;;;;5.47;1.92;;;11.90;79.50;;;;;;5008660;28;20280;-74
2022/09/26 00:47:02;;;;;;;6.32;1.67;;;11.90;79.50;;;;;;5010145;28;20080;-73
2022/09/26 00:49:33;;;;;;;5.72;2.10;;;11.90;79.40;;;;;;5010316;28;20058;-74
2022/09/26 00:52:05;;;;;;;5.15;1.60;;;11.90;79.40;;;;;;5012017;28;20066;-74
2022/09/26 00:54:36;;;;;;;4.23;1.60;;;11.90;79.30;;;;;;5009911;28;20057;-74
2022/09/26 00:57:07;;;;;;;5.40;1.70;;;11.90;79.30;;;;;;4994454;28;20258;-74
2022/09/26 00:59:38;;;;;;;4.95;1.65;;;11.90;79.20;;;;;;5011615;28;20050;-74
2022/09/26 01:02:05;;;;;;;5.03;1.65;;;11.90;79.10;;;;;;5010340;28;20093;-74
2022/09/26 01:04:35;;;;;;;5.13;1.55;;;11.80;79.10;;;;;;5008999;28;20069;-74
2022/09/26 01:07:07;;;;;;;5.10;1.60;;;11.80;79.10;;;;;;5011814;28;20054;-74
2022/09/26 01:09:38;;;;;;;5.07;1.50;;;11.80;79.10;;;;;;5011273;28;20815;-74
2022/09/26 01:12:07;;;;;;;5.70;1.77;;;11.80;79.10;;;;;;5011497;28;20054;-74
2022/09/26 01:14:35;;;;;;;5.07;1.40;;;11.80;79.00;;;;;;5012971;28;20563;-73
2022/09/26 01:17:02;;;;;;;4.18;1.33;;;11.80;78.90;;;;;;4995235;28;20057;-73
2022/09/26 01:19:41;;;;;;;5.13;1.70;;;11.70;78.90;;;;;;5011196;28;20508;-73
2022/09/26 01:22:34;;;;;;;4.18;1.30;;;11.80;78.90;;;;;;5011755;28;20336;-73
2022/09/26 01:25:17;;;;;;;6.15;1.85;;;11.70;78.90;;;;;;4995262;28;20050;-74
2022/09/26 01:28:06;;;;;;;5.13;1.83;;;11.70;78.80;;;;;;5011557;28;20050;-74
2022/09/26 01:30:41;;;;;;;4.68;1.42;;;11.70;78.90;;;;;;4995016;28;20501;-74
2022/09/26 01:33:37;;;;;;;4.40;1.40;;;11.70;78.80;;;;;;4995100;28;20093;-74
2022/09/26 01:36:37;;;;;;;6.05;1.73;;;11.70;78.80;;;;;;5011439;28;20294;-74
2022/09/26 01:39:26;;;;;;;6.05;1.80;;;11.70;78.80;;;;;;5009573;28;20057;-75
2022/09/26 01:42:03;;;;;;;8.32;1.80;;;11.70;78.90;;;;;;4994870;28;20066;-73
2022/09/26 01:44:34;;;;;;;7.07;2.00;;;11.70;78.90;;;;;;4995054;28;20195;-73
2022/09/26 01:47:13;;;;;;;6.07;2.03;;;11.70;78.90;;;;;;5011260;28;20527;-74
2022/09/26 01:49:52;;;;;;;6.50;2.15;;;11.70;79.00;;;;;;4994704;28;20745;-74
2022/09/26 01:52:28;;;;;;;4.93;1.63;;;11.70;79.00;;;;;;4995250;28;20121;-74
2022/09/26 01:55:00;;;;;;;4.85;1.73;;;11.70;79.00;;;;;;4994724;28;20066;-74
2022/09/26 01:57:31;;;;;;;7.38;2.10;;;11.70;79.00;;;;;;5011197;28;20065;-74
2022/09/26 02:00:02;;;;;;;6.70;2.00;;;11.70;79.00;;;;;;4993343;28;20559;-73
2022/09/26 02:02:34;;;;;;;6.63;2.13;;;11.70;79.00;;;;;;4994267;28;20281;-74
2022/09/26 02:05:07;;;;;;;5.10;2.30;;;11.70;79.00;;;;;;4994727;28;20047;-74
2022/09/26 02:07:43;;;;;;;5.95;2.10;;;11.70;79.10;;;;;;5012056;28;20050;-74
2022/09/26 02:10:16;;;;;;;6.90;2.60;;;11.70;79.10;;;;;;5012010;28;20290;-73
2022/09/26 02:12:49;;;;;;;5.43;2.00;;;11.70;79.10;;;;;;4994488;28;20054;-74
2022/09/26 02:15:19;;;;;;;6.93;2.10;;;11.70;79.10;;;;;;4993242;28;20756;-74
2022/09/26 02:17:53;;;;;;;7.55;2.33;;;11.70;79.30;;;;;;4994409;28;20101;-74
2022/09/26 02:20:25;;;;;;;5.40;2.25;;;11.70;79.30;;;;;;4994358;28;20169;-74
2022/09/26 02:22:53;;;;;;;4.80;2.00;;;11.70;79.40;;;;;;5011117;28;20054;-74
2022/09/26 02:25:20;;;;;;;5.57;2.23;;;11.70;79.50;;;;;;4994442;28;20070;-74
2022/09/26 02:27:48;;;;;;;5.40;2.05;;;11.70;79.60;;;;;;5010519;28;20278;-74
2022/09/26 02:30:15;;;;;;;6.38;2.28;;;11.70;79.60;;;;;;4993794;28;20056;-74
2022/09/26 02:32:43;;;;;;;7.25;2.50;;;11.70;79.80;;;;;;5010859;28;20750;-74
2022/09/26 02:37:58;;;;;;;5.90;2.30;;;11.70;80.00;;;;;;4994005;28;20145;-74
2022/09/26 02:40:39;;;;;;;6.18;2.60;;;11.80;80.10;;;;;;4993906;28;21050;-73
2022/09/26 02:43:23;;;;;;;8.15;2.85;;;11.80;80.20;;;;;;5010735;28;20098;-74
2022/09/26 02:46:02;;;;;;;6.85;2.63;;;11.80;80.40;;;;;;4993760;28;20129;-74
2022/09/26 02:48:47;;;;;;;8.73;3.30;;;11.80;80.40;;;;;;5009189;28;20050;-73
2022/09/26 02:51:37;;;;;;;6.97;2.73;;;11.80;80.70;;;;;;5007109;28;20058;-74
2022/09/26 02:54:17;;;;;;;7.78;3.10;;;11.80;80.70;;;;;;4974465;28;20629;-74
2022/09/26 02:57:03;;;;;;;7.25;3.03;;;11.70;80.90;;;;;;4974363;28;20049;-74
2022/09/26 02:59:37;;;;;;;6.28;2.92;;;11.80;81.20;;;;;;4990594;28;20082;-74
2022/09/26 03:02:10;;;;;;;6.38;2.72;;;11.70;81.20;;;;;;4973881;28;20138;-74
2022/09/26 03:04:46;;;;;;;6.97;3.13;;;11.70;81.30;;;;;;4990532;28;20055;-74
2022/09/26 03:07:18;;;;;;;9.38;3.42;;;11.70;81.60;;;;;;4973813;28;20298;-73
2022/09/26 03:09:48;;;;;;;6.95;3.78;;;11.80;81.90;;;;;;4973733;28;20551;-74
2022/09/26 03:12:17;;;;;;;7.05;3.50;;;11.70;82.10;;;;;;4973503;28;20428;-74
2022/09/26 03:14:46;;;;;;;11.00;3.72;;;11.70;82.10;;;;;;4974361;28;20623;-74
2022/09/26 03:17:17;;;;;;;7.83;3.30;;;11.80;82.20;;;;;;4991369;28;20082;-74
2022/09/26 03:19:48;;;;;;;6.75;3.20;;;11.70;82.30;;;;;;4973550;28;20768;-73
2022/09/26 03:22:17;;;;;;;6.45;3.00;;;11.70;82.30;;;;;;4990027;28;20070;-74
2022/09/26 03:24:45;;;;;;;8.85;3.47;;;11.70;82.50;;;;;;4985998;28;20528;-73
2022/09/26 03:27:14;;;;;;;8.48;3.15;;;11.70;82.60;;;;;;5010070;28;20050;-73
2022/09/26 03:29:42;;;;;;;7.80;2.97;;;11.70;82.70;;;;;;4993015;28;20052;-74
2022/09/26 03:32:15;;;;;;;7.28;3.00;;;11.70;82.60;;;;;;4993773;28;20255;-74
2022/09/26 03:34:42;;;;;;;7.68;3.50;;;11.70;82.90;;;;;;4992943;28;20047;-73
2022/09/26 03:37:10;;;;;;;9.70;2.92;;;11.70;83.00;;;;;;4993130;28;20125;-74
2022/09/26 03:39:39;;;;;;;7.68;3.50;;;11.70;82.90;;;;;;5009373;28;20046;-74
2022/09/26 03:42:13;;;;;;;6.40;3.30;;;11.70;83.10;;;;;;4993101;28;20047;-74
2022/09/26 03:44:42;;;;;;;8.43;3.38;;;11.70;83.10;;;;;;5009453;28;20826;-74
2022/09/26 03:47:14;;;;;;;7.35;3.38;;;11.70;83.10;;;;;;5008831;28;20053;-74
2022/09/26 03:49:44;;;;;;;6.82;3.47;;;11.70;83.30;;;;;;4993065;28;20098;-74
2022/09/26 03:52:12;;;;;;;7.25;3.33;;;11.70;83.20;;;;;;4993527;28;20042;-74
2022/09/26 03:54:41;;;;;;;7.00;3.23;;;11.70;83.50;;;;;;5009771;28;20064;-74
2022/09/26 03:57:09;;;;;;;8.43;3.92;;;11.60;83.50;;;;;;5009671;28;20328;-74
2022/09/26 03:59:41;;;;;;;6.32;3.80;;;11.60;83.70;;;;;;4991032;28;20046;-74
2022/09/26 04:02:08;;;;;;;8.45;4.07;;;11.60;83.60;;;;;;5009184;28;20501;-74
2022/09/26 04:04:40;;;;;;;7.05;3.13;;;11.60;83.70;;;;;;5009402;28;20532;-74
2022/09/26 04:07:08;;;;;;;8.67;3.90;;;11.60;83.60;;;;;;5009391;28;20046;-74
2022/09/26 04:09:35;;;;;;;7.50;3.50;;;11.60;83.70;;;;;;4992791;28;20304;-74
2022/09/26 04:12:03;;;;;;;6.55;3.90;;;11.50;83.60;;;;;;5009547;28;20149;-74
2022/09/26 04:14:35;;;;;;;8.65;4.03;;;11.60;83.90;;;;;;4993138;28;20050;-74
2022/09/26 04:17:02;;;;;;;8.18;4.50;;;11.60;84.00;;;;;;4992905;28;20049;-74
2022/09/26 04:19:33;;;;;;;7.53;4.37;;;11.50;84.00;;;;;;4992521;28;20066;-73
2022/09/26 04:22:00;;;;;;;9.18;4.25;;;11.50;84.10;;;;;;4992796;28;20285;-74
2022/09/26 04:24:30;;;;;;;8.60;4.07;;;11.50;84.00;;;;;;5011883;28;20100;-73
2022/09/26 04:26:57;;;;;;;6.78;3.80;;;11.50;84.00;;;;;;5012387;28;20047;-74
2022/09/26 04:29:27;;;;;;;9.63;4.70;;;11.50;84.10;;;;;;5012324;28;20050;-74
2022/09/26 04:32:18;;;;;;;6.80;4.17;;;11.50;84.10;;;;;;5008174;28;20141;-74
2022/09/26 04:35:06;;;;;;;7.68;4.32;;;11.50;84.10;;;;;;5012995;28;20258;-73
2022/09/26 04:37:35;;;;;;;7.63;4.03;;;11.50;84.20;;;;;;4996250;28;20082;-73
2022/09/26 04:40:03;;;;;;;9.95;4.47;;;11.50;84.10;;;;;;4995379;28;20050;-73
2022/09/26 04:42:33;;;;;;;9.40;4.20;;;11.50;84.20;;;;;;5012476;28;20054;-73
2022/09/26 04:45:01;;;;;;;9.30;4.20;;;11.50;84.10;;;;;;4996059;28;20057;-73
2022/09/26 04:47:28;;;;;;;9.35;4.43;;;11.50;84.20;;;;;;4995797;28;20261;-73
2022/09/26 04:50:14;;;;;;;8.80;4.47;;;11.50;84.30;;;;;;5011975;28;20050;-73
2022/09/26 04:52:41;;;;;;;9.73;4.93;;;11.50;84.20;;;;;;5013553;28;20098;-73
2022/09/26 04:55:09;;;;;;;7.60;4.00;;;11.50;84.30;;;;;;4995841;28;20639;-73
2022/09/26 04:57:37;;;;;;;10.47;5.17;;;11.50;84.30;;;;;;5011709;28;20046;-73
2022/09/26 05:00:07;;;;;;;10.00;5.00;;;11.40;84.20;;;;;;4995573;28;20284;-73
2022/09/26 05:02:34;;;;;;;9.13;5.20;;;11.40;84.30;;;;;;5011647;28;20140;-73
2022/09/26 05:05:01;;;;;;;8.95;4.75;;;11.40;84.40;;;;;;4995659;28;20050;-73
2022/09/26 05:07:30;;;;;;;9.77;5.18;;;11.40;84.30;;;;;;4995814;28;20098;-73
2022/09/26 05:09:57;;;;;;;9.47;4.63;;;11.40;84.50;;;;;;4994250;28;20133;-73
2022/09/26 05:12:25;;;;;;;11.02;4.82;;;11.40;84.40;;;;;;4995701;28;20249;-73
2022/09/26 05:14:55;;;;;;;8.35;5.15;;;11.40;84.30;;;;;;4995576;28;20070;-73
2022/09/26 05:17:24;;;;;;;12.23;5.25;;;11.40;84.40;;;;;;5012004;28;20053;-73
2022/09/26 05:19:52;;;;;;;9.25;4.97;;;11.40;84.30;;;;;;4995163;28;20046;-73
2022/09/26 05:22:29;;;;;;;9.27;4.90;;;11.40;84.40;;;;;;4995809;28;20117;-73
2022/09/26 05:27:41;;;;;;;9.43;5.22;;;11.40;84.40;;;;;;5012043;28;20065;-73
2022/09/26 05:30:11;;;;;;;9.77;5.45;;;11.40;84.20;;;;;;4995097;28;20541;-73
2022/09/26 05:32:39;;;;;;;11.32;5.40;;;11.40;84.10;;;;;;4995601;28;20066;-73
2022/09/26 05:35:07;;;;;;;11.20;5.70;;;11.40;84.10;;;;;;4995313;28;20137;-73
2022/09/26 05:37:40;;;;;;;10.13;5.38;;;11.30;84.20;;;;;;4995282;28;20266;-73
2022/09/26 05:43:00;;;;;;;10.40;5.40;;;11.30;83.90;;;;;;5010279;28;20500;-73
2022/09/26 05:45:30;;;;;;;10.43;5.45;;;11.30;83.70;;;;;;5011886;28;20051;-73
2022/09/26 05:47:58;;;;;;;8.67;5.00;;;11.30;83.70;;;;;;4995293;28;20046;-73
2022/09/26 05:50:26;;;;;;;10.15;5.28;;;11.30;83.60;;;;;;4994787;28;20329;-73
2022/09/26 05:52:57;;;;;;;10.57;5.35;;;11.30;83.50;;;;;;4995282;28;20053;-73
2022/09/26 05:55:25;;;;;;;10.40;4.70;;;11.30;83.40;;;;;;5011504;28;20058;-73
2022/09/26 05:57:59;;;;;;;8.32;4.80;;;11.30;83.30;;;;;;5012060;28;20057;-73
2022/09/26 06:00:37;;;;;;;10.80;4.97;;;11.30;83.10;;;;;;4994194;28;20050;-73
2022/09/26 06:03:06;;;;;;;9.50;4.97;;;11.20;83.10;;;;;;4994357;28;20242;-73
2022/09/26 06:05:47;;;;;;;8.43;4.50;;;11.20;83.20;;;;;;5010161;28;20173;-73
2022/09/26 06:08:16;;;;;;;9.38;4.45;;;11.20;83.00;;;;;;5008197;28;20046;-73
2022/09/26 06:10:54;;;;;;;9.30;4.53;;;11.20;82.90;;;;;;5005066;28;20050;-73
2022/09/26 06:13:21;;;;;;;8.10;4.40;;;11.10;82.90;;;;;;4994811;28;20050;-73
2022/09/26 06:15:49;;;;;;;8.50;5.30;;;11.10;82.90;;;;;;4994803;28;20246;-73
2022/09/26 06:18:18;;;;;;;9.13;5.03;;;11.10;82.80;;;;;;5009550;28;20055;-73
2022/09/26 06:20:45;;;;;;;9.88;4.25;;;11.20;82.40;;;;;;5013851;28;20129;-75
2022/09/26 06:23:13;;;;;;;8.73;4.45;;;11.10;82.20;;;;;;5026858;28;20047;-73
2022/09/26 06:25:43;;;;;;;9.00;4.70;;;11.10;82.20;;;;;;5010634;28;20047;-73
2022/09/26 06:28:10;;;;;;;8.57;4.65;;;11.10;82.30;;;;;;5010700;28;20371;-73
2022/09/26 06:30:37;;;;;;;11.05;4.57;;;11.10;82.20;;;;;;4994378;28;20050;-73
2022/09/26 06:33:12;;;;;;;9.05;4.30;;;11.10;82.20;;;;;;5011201;28;20488;-73
2022/09/26 06:36:02;;;;;;;10.15;3.90;;;11.10;82.30;;;;;;4996542;28;20050;-73
2022/09/26 06:38:34;;;;;;;9.47;4.60;;;11.10;82.20;;;;;;5011073;28;20049;-73
2022/09/26 06:41:02;;;;;;;8.27;4.47;;;11.10;82.20;;;;;;4992494;28;20282;-73
2022/09/26 06:43:31;;;;;;;8.40;3.88;;;11.10;82.30;;;;;;4993600;28;20074;-73
2022/09/26 06:46:19;;;;;;;9.63;4.15;;;11.10;82.10;;;;;;4981516;28;20105;-73
2022/09/26 06:48:49;;;;;;;7.30;3.45;;;11.10;82.20;;;;;;4992645;28;20554;-73
2022/09/26 06:51:42;;;;;;;10.13;3.77;;;11.10;82.20;;;;;;5007609;28;20054;-73
2022/09/26 06:54:10;;;;;;;8.18;3.47;;;11.10;82.10;;;;;;4991798;28;20282;-73
2022/09/26 06:56:37;;;;;;;6.68;3.75;;;11.10;82.00;;;;;;4993995;28;20046;-73
2022/09/26 06:59:04;;;;;;;7.15;3.28;;;11.10;81.90;;;;;;4992698;28;20446;-73
2022/09/26 07:01:34;;;;;;;8.10;3.75;;;11.10;81.90;;;;;;5009877;28;20064;-72
2022/09/26 07:04:26;;;;;;;7.10;3.50;;;11.10;81.60;;;;;;4985041;28;20584;-73
2022/09/26 07:07:07;;;;;;;7.43;3.33;;;11.10;81.40;;;;;;5025323;28;20313;-73
2022/09/26 07:09:34;;;;;;;6.57;3.33;;;11.10;81.50;;;;;;4992445;28;20082;-73
2022/09/26 07:12:13;;;;;;;7.20;2.90;;;11.10;81.50;;;;;;5008037;28;20120;-73
2022/09/26 07:14:41;;;;;;;6.63;3.03;;;11.10;81.40;;;;;;5007781;28;20464;-74
2022/09/26 07:17:20;;;;;;;7.97;3.20;;;11.10;81.20;;;;;;5008177;28;20065;-74
2022/09/26 07:20:16;;;;;;;9.57;3.30;;;11.10;81.30;;;;;;4983073;28;20727;-74
2022/09/26 07:23:11;;;;;;;5.68;2.72;;;11.10;81.20;;;;;;4990675;28;20065;-73
2022/09/26 07:25:40;;;;;;;8.18;3.00;;;11.10;81.20;;;;;;5005182;28;20042;-73
2022/09/26 07:28:09;;;;;;;9.02;2.85;;;11.00;81.30;;;;;;5007991;28;20581;-72
2022/09/26 07:30:49;;;;;;;6.23;2.83;;;11.00;81.40;;;;;;5006166;28;20050;-72
2022/09/26 07:33:43;;;;;;;6.55;3.20;;;11.00;81.50;;;;;;5007457;28;20823;-72
2022/09/26 07:36:11;;;;;;;6.07;2.53;;;11.00;81.60;;;;;;5006166;28;20054;-72
2022/09/26 07:38:41;;;;;;;5.57;2.75;;;11.00;81.40;;;;;;4991499;28;20513;-72
2022/09/26 07:41:10;;;;;;;5.63;2.70;;;11.00;81.60;;;;;;5006344;28;20141;-72
2022/09/26 07:43:37;;;;;;;7.90;2.50;;;11.00;81.60;;;;;;4991384;28;20507;-73
2022/09/26 07:52:01;;;;;;;7.40;2.97;;;11.00;81.90;;;;;;4993144;28;20051;-73
2022/09/26 07:54:42;;;;;;;6.13;2.65;;;11.00;81.90;;;;;;5008956;28;20065;-72
2022/09/26 07:57:38;;;;;;;6.17;2.90;;;11.00;81.90;;;;;;5009908;28;20129;-72
2022/09/26 08:00:20;;;;;;;5.88;2.50;;;11.00;82.20;;;;;;4994049;28;20277;-73
2022/09/26 08:03:12;;;;;;;5.28;2.42;;;11.00;82.10;;;;;;5032368;23;20058;-71
2022/09/26 08:05:41;;;;;;;6.25;2.90;;;11.00;82.20;;;;;;5035368;28;20052;-71
2022/09/26 08:08:09;;;;;;;7.30;2.92;;;11.00;82.20;;;;;;5035956;28;20052;-71
2022/09/26 08:10:57;;;;;;;8.33;3.23;;;11.00;82.30;;;;;;5032622;28;20577;-71
2022/09/26 08:13:33;;;;;;;5.88;3.25;;;11.00;82.40;;;;;;5031654;28;20909;-71
2022/09/26 08:16:22;;;;;;;7.75;2.70;;;11.00;82.50;;;;;;5049444;28;20073;-70
2022/09/26 08:18:51;;;;;;;6.57;2.80;;;11.00;82.50;;;;;;5035665;28;20101;-70
2022/09/26 08:21:19;;;;;;;6.30;2.95;;;11.00;82.70;;;;;;5050945;28;20058;-70
2022/09/26 08:23:46;;;;;;;5.67;2.70;;;11.10;82.70;;;;;;5031717;28;20066;-71
2022/09/26 08:26:38;;;;;;;7.32;3.20;;;11.10;82.80;;;;;;5001366;28;20291;-71
2022/09/26 08:29:11;;;;;;;6.28;2.83;;;11.10;83.00;;;;;;5035475;28;20049;-70
2022/09/26 08:31:39;;;;;;;6.18;2.70;;;11.10;83.20;;;;;;5034094;28;20045;-71
2022/09/26 08:34:07;;;;;;;6.88;2.63;;;11.10;83.00;;;;;;5034168;28;20100;-71
2022/09/26 08:36:35;;;;;;;5.93;2.63;;;11.10;83.00;;;;;;5040042;28;20057;-71
2022/09/26 08:39:26;;;;;;;6.05;2.13;;;11.10;82.90;;;;;;5014115;28;20250;-71
2022/09/26 08:42:33;;;;;;;6.88;2.42;;;11.20;82.80;;;;;;5029844;28;20058;-74
2022/09/26 08:48:53;;;;;;;5.88;2.50;;;11.30;82.70;;;;;;5015758;28;20116;-73
2022/09/26 08:51:29;;;;;;;6.40;2.27;;;11.30;82.60;;;;;;5031996;28;20060;-74
2022/09/26 08:54:05;;;;;;;6.03;2.70;;;11.30;82.60;;;;;;5034062;28;20371;-73
2022/09/26 08:56:36;;;;;;;6.28;2.50;;;11.30;82.50;;;;;;5033933;28;20042;-73
2022/09/26 08:59:09;;;;;;;6.35;2.60;;;11.40;82.50;;;;;;5034906;28;20077;-73
2022/09/26 09:01:40;;;;;;;6.03;2.55;;;11.40;82.20;;;;;;5035733;28;20542;-74
2022/09/26 09:04:39;;;;;;;5.67;2.37;;;11.50;82.10;;;;;;5050957;28;20057;-74
2022/09/26 09:07:15;;;;;;;8.60;3.00;;;11.50;82.00;;;;;;5035405;28;20253;-74
2022/09/26 09:09:42;;;;;;;5.53;2.30;;;11.50;82.10;;;;;;5032851;28;20712;-73
2022/09/26 09:12:40;;;;;;;7.57;2.58;;;11.50;82.00;;;;;;5050102;28;20511;-74
2022/09/26 09:15:41;;;;;;;6.05;2.90;;;11.50;82.20;;;;;;5050195;28;20513;-73
2022/09/26 09:18:41;;;;;;;6.07;2.27;;;11.60;82.20;;;;;;5049937;28;20131;-73
2022/09/26 09:21:30;;;;;;;5.75;2.55;;;11.70;82.00;;;;;;5051314;28;20658;-74
2022/09/26 09:24:28;;;;;;;6.57;2.80;;;11.70;82.20;;;;;;5051403;28;20060;-74
2022/09/26 09:27:10;;;;;;;5.53;2.90;;;11.70;81.90;;;;;;5034066;28;20602;-73
2022/09/26 09:29:52;;;;;;;7.25;2.72;;;11.70;82.00;;;;;;5030772;28;20081;-73
2022/09/26 09:32:48;;;;;;;7.37;3.30;;;11.70;82.00;;;;;;5048531;28;20050;-73
2022/09/26 09:35:29;;;;;;;7.95;3.22;;;11.70;81.80;;;;;;5051016;28;20686;-74
2022/09/26 09:38:17;;;;;;;10.82;3.30;;;11.80;81.80;;;;;;5052695;28;20083;-74
2022/09/26 09:41:05;;;;;;;7.28;3.47;;;11.70;82.00;;;;;;5050816;28;20054;-74
2022/09/26 09:43:37;;;;;;;7.07;3.60;;;11.80;82.20;;;;;;5034361;28;20120;-74
2022/09/26 09:46:09;;;;;;;7.60;3.20;;;11.80;82.10;;;;;;5050934;28;20053;-73
2022/09/26 09:48:37;;;;;;;8.45;4.10;;;11.80;82.10;;;;;;5034260;28;20285;-74
2022/09/26 09:51:17;;;;;;;9.68;4.25;;;11.80;82.30;;;;;;5034005;28;20395;-74
2022/09/26 09:53:55;;;;;;;9.82;4.10;;;11.90;82.30;;;;;;5051072;28;20049;-74
2022/09/26 09:56:31;;;;;;;9.18;5.18;;;11.90;82.20;;;;;;5034325;28;20475;-74
2022/09/26 09:59:17;;;;;;;9.77;4.90;;;11.90;82.20;;;;;;5034143;28;20054;-74
2022/09/26 10:02:13;;;;;;;6.65;3.15;;;11.90;82.40;;;;;;5033645;28;20280;-74
2022/09/26 10:04:45;;;;;;;8.57;3.00;;;11.90;82.20;;;;;;5033484;28;20127;-74
2022/09/26 10:07:13;;;;;;;6.25;2.38;;;11.90;82.20;;;;;;5033864;28;20057;-73
2022/09/26 10:09:50;;;;;;;7.80;3.25;;;11.90;82.30;;;;;;5033052;28;20096;-74
2022/09/26 10:12:50;;;;;;;7.67;3.37;;;11.90;82.20;;;;;;5023410;28;20129;-74
2022/09/26 10:15:40;;;;;;;6.82;2.78;;;11.90;82.20;;;;;;5048685;28;20307;-74
2022/09/26 10:18:16;;;;;;;8.32;3.10;;;11.90;82.40;;;;;;5046506;28;20049;-74
2022/09/26 10:20:54;;;;;;;9.55;3.20;;;11.90;82.50;;;;;;5029004;28;20515;-74
2022/09/26 10:23:30;;;;;;;9.30;3.50;;;11.90;82.50;;;;;;5028699;28;20137;-74
2022/09/26 10:26:02;;;;;;;6.33;3.00;;;11.90;82.50;;;;;;5036525;28;20156;-74
2022/09/26 10:28:36;;;;;;;8.00;3.28;;;11.90;82.50;;;;;;5029174;28;20254;-74
2022/09/26 10:31:07;;;;;;;9.52;3.70;;;11.90;82.30;;;;;;5031200;28;20046;-74
2022/09/26 10:33:58;;;;;;;6.38;2.65;;;12.00;82.50;;;;;;5028826;28;20335;-74
2022/09/26 10:36:35;;;;;;;8.55;3.70;;;12.00;82.20;;;;;;5043760;28;20601;-73
2022/09/26 10:41:59;;;;;;;7.75;3.22;;;12.00;82.30;;;;;;5032400;28;20268;-74
2022/09/26 10:44:28;;;;;;;7.30;3.85;;;12.00;82.20;;;;;;5050502;28;20057;-74
2022/09/26 10:47:12;;;;;;;6.40;3.10;;;12.00;82.60;;;;;;5049088;28;20413;-74
2022/09/26 10:50:02;;;;;;;7.75;3.58;;;12.00;82.70;;;;;;5047061;28;20045;-74
2022/09/26 10:52:44;;;;;;;7.63;3.80;;;12.00;83.00;;;;;;5049583;28;20430;-74
2022/09/26 10:55:16;;;;;;;8.02;3.45;;;12.00;83.30;;;;;;5031409;28;20261;-73
2022/09/26 10:57:46;;;;;;;6.80;3.55;;;12.00;83.70;;;;;;5038355;28;20057;-74
2022/09/26 11:00:20;;;;;;;7.75;3.70;;;12.00;83.80;;;;;;5045268;28;20128;-74
2022/09/26 11:02:50;;;;;;;7.50;3.88;;;12.00;84.20;;;;;;5018656;28;20050;-74
2022/09/26 11:08:18;;;;;;;6.60;3.50;;;11.90;84.60;;;;;;5043505;28;20350;-74
2022/09/26 11:11:14;;;;;;;8.18;3.92;;;12.00;84.90;;;;;;5035017;28;20065;-74
2022/09/26 11:13:48;;;;;;;8.98;4.35;;;11.90;85.10;;;;;;5027989;28;20049;-74
2022/09/26 11:16:19;;;;;;;9.95;3.47;;;11.90;85.50;;;;;;5045918;28;20966;-74
2022/09/26 11:18:56;;;;;;;7.33;3.93;;;12.00;85.50;;;;;;5048474;28;20176;-74
2022/09/26 11:21:29;;;;;;;8.15;3.88;;;12.00;85.70;;;;;;5047964;28;20249;-74
2022/09/26 11:24:03;;;;;;;7.78;3.78;;;11.90;85.70;;;;;;5031073;28;20041;-74
2022/09/26 11:26:37;;;;;;;7.72;4.43;;;12.00;86.10;;;;;;5030100;28;20053;-75
2022/09/26 11:29:12;;;;;;;6.20;3.72;;;12.00;86.10;;;;;;5026685;28;20053;-74
2022/09/26 11:32:02;;;;;;;7.07;3.27;;;12.00;86.10;;;;;;5045048;28;20057;-74
2022/09/26 11:34:39;;;;;;;9.07;3.67;;;12.00;86.20;;;;;;5047363;28;20296;-75
2022/09/26 11:37:35;;;;;;;8.40;3.40;;;12.00;86.20;;;;;;5031093;28;20478;-74
2022/09/26 11:40:27;;;;;;;7.30;3.90;;;12.00;86.40;;;;;;5030707;28;20087;-75
2022/09/26 11:43:12;;;;;;;8.63;3.58;;;11.90;86.60;;;;;;5029592;28;20049;-74
2022/09/26 11:45:56;;;;;;;6.97;3.37;;;12.00;86.90;;;;;;5045784;28;20053;-75
2022/09/26 11:49:02;;;;;;;7.30;3.83;;;12.00;86.80;;;;;;5049912;28;20264;-76
2022/09/26 11:52:01;;;;;;;6.57;3.33;;;12.00;86.90;;;;;;5046294;28;20050;-74
2022/09/26 11:54:57;;;;;;;6.43;3.28;;;12.00;87.00;;;;;;5055133;28;20112;-75
2022/09/26 11:57:40;;;;;;;10.30;3.63;;;12.00;86.80;;;;;;5044863;28;20091;-75
2022/09/26 12:00:23;;;;;;;5.93;3.47;;;12.00;87.00;;;;;;5045756;28;20060;-75
2022/09/26 12:03:29;;;;;;;6.38;3.38;;;12.00;87.00;;;;;;5045091;28;20276;-75
2022/09/26 12:06:01;;;;;;;6.90;3.15;;;12.00;87.20;;;;;;5046702;28;20115;-74
2022/09/26 12:09:02;;;;;;;6.03;3.90;;;12.10;87.20;;;;;;5047180;28;20563;-74
2022/09/26 12:11:38;;;;;;;6.00;3.38;;;12.10;87.40;;;;;;5046259;28;20614;-74
2022/09/26 12:14:18;;;;;;;7.63;3.70;;;12.10;87.50;;;;;;5049412;28;20049;-74
2022/09/26 12:16:50;;;;;;;7.68;4.07;;;12.10;87.60;;;;;;5046314;28;20241;-73
2022/09/26 12:19:30;;;;;;;6.35;3.28;;;12.10;87.60;;;;;;5049117;28;20081;-74
2022/09/26 12:24:59;;;;;;;5.55;2.65;;;12.10;87.50;;;;;;5037981;28;20065;-75
2022/09/26 12:27:34;;;;;;;6.13;3.33;;;12.10;87.70;;;;;;5049875;28;20050;-75
2022/09/26 12:30:09;;;;;;;5.95;2.72;;;12.10;87.50;;;;;;5048626;28;20253;-73
2022/09/26 12:32:57;;;;;;;6.72;3.28;;;12.10;87.50;;;;;;5048982;28;20054;-75
2022/09/26 12:35:44;;;;;;;6.68;2.90;;;12.20;87.70;;;;;;5048673;28;20450;-74
2022/09/26 12:38:56;;;;;;;5.50;2.80;;;12.20;87.50;;;;;;5047875;28;20049;-74
2022/09/26 12:41:40;;;;;;;5.60;2.87;;;12.20;87.60;;;;;;5033489;28;20520;-74
2022/09/26 12:44:37;;;;;;;4.95;2.50;;;12.20;87.70;;;;;;5049501;28;20303;-73
2022/09/26 12:47:17;;;;;;;4.72;2.40;;;12.20;87.80;;;;;;5051381;28;20045;-73
2022/09/26 12:50:06;;;;;;;5.05;2.40;;;12.20;87.90;;;;;;5051546;28;20484;-74
2022/09/26 12:53:03;;;;;;;5.68;2.50;;;12.20;88.00;;;;;;5053507;28;20085;-74
2022/09/26 12:55:37;;;;;;;4.80;2.67;;;12.20;87.90;;;;;;5051104;28;20045;-74
2022/09/26 12:58:20;;;;;;;5.05;2.10;;;12.20;87.90;;;;;;5050917;28;20352;-73
2022/09/26 13:00:56;;;;;;;4.38;2.30;;;12.20;88.10;;;;;;5032735;28;20133;-73
2022/09/26 13:03:55;;;;;;;5.22;2.25;;;12.20;88.20;;;;;;5050535;28;20053;-73
2022/09/26 13:06:41;;;;;;;5.63;2.15;;;12.20;88.30;;;;;;5049018;28;20116;-74
2022/09/26 13:09:19;;;;;;;5.07;2.63;;;12.30;88.20;;;;;;5051127;28;20053;-73
2022/09/26 13:11:55;;;;;;;4.93;2.33;;;12.20;88.40;;;;;;5051973;28;20253;-73
2022/09/26 13:14:41;;;;;;;4.60;2.03;;;12.20;88.50;;;;;;5051175;28;20108;-74
2022/09/26 13:17:12;;;;;;;5.47;2.28;;;12.30;88.60;;;;;;5049030;28;20049;-73
2022/09/26 13:19:47;;;;;;;6.72;3.20;;;12.30;88.60;;;;;;5048182;28;20053;-73
2022/09/26 13:22:24;;;;;;;3.97;1.90;;;12.30;88.70;;;;;;5050909;28;20053;-74
2022/09/26 13:24:57;;;;;;;3.60;2.22;;;12.30;88.60;;;;;;5052748;28;20253;-73
2022/09/26 13:27:33;;;;;;;4.03;1.90;;;12.30;88.80;;;;;;5049693;28;20966;-73
2022/09/26 13:30:04;;;;;;;3.95;1.80;;;12.30;88.60;;;;;;5050275;28;20142;-72
2022/09/26 13:32:37;;;;;;;3.28;1.70;;;12.30;88.80;;;;;;5048821;28;20053;-73
2022/09/26 13:35:17;;;;;;;3.40;1.80;;;12.30;88.70;;;;;;5049741;28;20081;-74
2022/09/26 13:37:52;;;;;;;4.70;1.90;;;12.40;88.80;;;;;;5048817;28;20256;-73
2022/09/26 13:40:30;;;;;;;4.25;1.70;;;12.40;88.60;;;;;;5025934;28;20054;-74
2022/09/26 13:43:16;;;;;;;3.72;1.73;;;12.40;88.70;;;;;;5049655;28;20061;-74
2022/09/26 13:45:57;;;;;;;4.53;2.33;;;12.40;88.90;;;;;;5049939;28;20557;-74
2022/09/26 13:48:35;;;;;;;4.17;2.17;;;12.50;89.00;;;;;;5048255;28;20046;-73
2022/09/26 13:51:17;;;;;;;4.13;2.15;;;12.50;88.90;;;;;;5023905;28;20273;-74
2022/09/26 13:53:54;;;;;;;5.25;1.83;;;12.50;88.90;;;;;;5030907;28;20055;-74
2022/09/26 13:56:38;;;;;;;4.50;2.35;;;12.50;88.90;;;;;;5050738;28;20069;-73
2022/09/26 13:59:24;;;;;;;5.00;2.15;;;12.50;88.60;;;;;;5033886;28;21139;-73